createdAt,value
2022-12-24T00:01:26.768Z,64.87
2022-12-24T00:03:54.136Z,64.78
2022-12-24T00:06:23.866Z,65.06
2022-12-24T00:08:53.542Z,64.98
2022-12-24T00:11:21.191Z,65.06
2022-12-24T00:13:48.951Z,65.60
2022-12-24T00:16:15.810Z,65.30
2022-12-24T00:18:46.316Z,64.75
2022-12-24T00:21:14.844Z,65.05
2022-12-24T00:23:41.526Z,64.78
2022-12-24T00:26:08.367Z,64.36
2022-12-24T00:28:35.200Z,64.83
2022-12-24T00:31:08.457Z,65.16
2022-12-24T00:33:35.078Z,65.10
2022-12-24T00:36:02.167Z,64.94
2022-12-24T00:38:28.760Z,64.54
2022-12-24T00:41:02.752Z,64.14
2022-12-24T00:43:30.432Z,64.66
2022-12-24T00:45:57.803Z,64.91
2022-12-24T00:48:24.451Z,64.67
2022-12-24T00:50:51.619Z,65.29
2022-12-24T00:53:18.680Z,64.83
2022-12-24T00:55:45.300Z,64.68
2022-12-24T00:58:11.927Z,64.33
2022-12-24T01:00:38.538Z,65.34
2022-12-24T01:03:05.299Z,65.08
2022-12-24T01:05:32.057Z,64.88
2022-12-24T01:07:58.652Z,64.95
2022-12-24T01:10:25.307Z,64.83
2022-12-24T01:12:51.842Z,65.23
2022-12-24T01:15:18.503Z,65.10
2022-12-24T01:17:45.147Z,64.67
2022-12-24T01:20:15.568Z,64.54
2022-12-24T01:22:42.291Z,64.92
2022-12-24T01:25:09.429Z,64.12
2022-12-24T01:27:36.043Z,64.03
2022-12-24T01:30:07.764Z,63.92
2022-12-24T01:32:34.724Z,64.10
2022-12-24T01:35:02.020Z,64.01
2022-12-24T01:37:28.592Z,64.11
2022-12-24T01:40:15.167Z,64.02
2022-12-24T01:43:04.209Z,63.74
2022-12-24T01:45:53.802Z,64.39
2022-12-24T01:48:28.522Z,64.47
2022-12-24T01:51:00.842Z,64.18
2022-12-24T01:53:27.864Z,65.29
2022-12-24T01:55:55.254Z,64.68
2022-12-24T01:58:24.355Z,64.42
2022-12-24T02:00:50.923Z,64.55
2022-12-24T02:03:18.654Z,64.26
2022-12-24T02:05:55.673Z,64.26
2022-12-24T02:08:22.713Z,64.30
2022-12-24T02:10:50.610Z,63.84
2022-12-24T02:13:20.738Z,63.78
2022-12-24T02:16:29.278Z,63.98
2022-12-24T02:19:07.453Z,63.86
2022-12-24T02:21:53.504Z,63.73
2022-12-24T02:24:43.250Z,64.15
2022-12-24T02:27:26.127Z,63.80
2022-12-24T02:30:07.972Z,64.29
2022-12-24T02:32:53.001Z,64.42
2022-12-24T02:35:28.096Z,65.06
2022-12-24T02:38:17.911Z,64.64
2022-12-24T02:40:50.876Z,64.76
2022-12-24T02:43:23.531Z,64.43
2022-12-24T02:45:59.275Z,64.06
2022-12-24T02:48:27.928Z,64.53
2022-12-24T02:51:12.648Z,64.39
2022-12-24T02:53:40.381Z,63.98
2022-12-24T02:56:15.967Z,64.29
2022-12-24T02:58:45.477Z,64.01
2022-12-24T03:01:41.588Z,64.42
2022-12-24T03:04:20.098Z,65.12
2022-12-24T03:06:49.579Z,64.95
2022-12-24T03:09:32.824Z,65.29
2022-12-24T03:12:07.388Z,64.68
2022-12-24T03:14:35.205Z,64.53
2022-12-24T03:17:03.880Z,64.37
2022-12-24T03:19:31.666Z,64.19
2022-12-24T03:22:00.955Z,64.01
2022-12-24T03:24:27.582Z,64.63
2022-12-24T03:26:55.030Z,64.86
2022-12-24T03:29:21.687Z,64.80
2022-12-24T03:31:52.762Z,64.40
2022-12-24T03:34:20.190Z,64.48
2022-12-24T03:36:48.420Z,64.28
2022-12-24T03:39:15.067Z,64.31
2022-12-24T03:41:41.646Z,64.35
2022-12-24T03:44:08.353Z,64.41
2022-12-24T03:46:35.019Z,65.25
2022-12-24T03:49:02.400Z,64.75
2022-12-24T03:51:29.524Z,64.49
2022-12-24T03:53:57.126Z,66.40
2022-12-24T03:56:24.187Z,65.20
2022-12-24T03:58:50.782Z,65.32
2022-12-24T04:01:18.503Z,64.48
2022-12-24T04:03:50.518Z,64.79
2022-12-24T04:06:19.375Z,65.04
2022-12-24T04:08:46.287Z,65.30
2022-12-24T04:11:17.178Z,64.63
2022-12-24T04:13:43.893Z,65.37
2022-12-24T04:16:13.807Z,65.67
2022-12-24T04:18:41.552Z,65.63
2022-12-24T04:21:09.195Z,66.79
2022-12-24T04:23:38.522Z,65.53
2022-12-24T04:26:06.684Z,65.84
2022-12-24T04:28:33.602Z,66.08
2022-12-24T04:31:02.153Z,65.25
2022-12-24T04:33:29.492Z,67.44
2022-12-24T04:35:59.923Z,68.40
2022-12-24T04:38:29.264Z,67.43
2022-12-24T04:41:24.362Z,67.18
2022-12-24T04:43:57.613Z,67.18
2022-12-24T04:46:26.633Z,69.06
2022-12-24T04:48:54.361Z,68.16
2022-12-24T04:51:22.004Z,67.43
2022-12-24T04:53:48.756Z,67.80
2022-12-24T04:56:18.172Z,67.05
2022-12-24T04:58:45.299Z,67.12
2022-12-24T05:01:30.075Z,66.78
2022-12-24T05:03:57.132Z,67.44
2022-12-24T05:06:28.656Z,66.33
2022-12-24T05:08:56.559Z,66.35
2022-12-24T05:11:23.871Z,66.30
2022-12-24T05:13:55.947Z,66.41
2022-12-24T05:16:24.068Z,66.58
2022-12-24T05:18:51.769Z,66.51
2022-12-24T05:21:21.773Z,66.16
2022-12-24T05:24:07.204Z,66.35
2022-12-24T05:26:37.958Z,66.39
2022-12-24T05:29:06.146Z,66.37
2022-12-24T05:31:34.106Z,65.72
2022-12-24T05:34:02.555Z,66.57
2022-12-24T05:36:29.381Z,65.87
2022-12-24T05:38:56.022Z,66.36
2022-12-24T05:41:22.789Z,66.90
2022-12-24T05:43:49.501Z,66.28
2022-12-24T05:46:19.349Z,66.19
2022-12-24T05:48:46.717Z,66.11
2022-12-24T05:51:15.488Z,65.78
2022-12-24T05:53:42.137Z,66.06
2022-12-24T05:56:11.315Z,65.82
2022-12-24T05:58:52.164Z,66.03
2022-12-24T06:01:29.795Z,66.36
2022-12-24T06:04:05.011Z,66.01
2022-12-24T06:06:40.229Z,65.88
2022-12-24T06:09:06.913Z,66.10
2022-12-24T06:11:38.487Z,66.01
2022-12-24T06:14:05.172Z,66.21
2022-12-24T06:16:31.780Z,66.50
2022-12-24T06:18:58.504Z,66.38
2022-12-24T06:21:25.464Z,66.11
2022-12-24T06:23:52.190Z,66.01
2022-12-24T06:26:21.809Z,66.08
2022-12-24T06:28:49.835Z,66.85
2022-12-24T06:31:18.932Z,66.33
2022-12-24T06:33:45.727Z,66.98
2022-12-24T06:36:19.231Z,67.52
2022-12-24T06:38:47.563Z,67.06
2022-12-24T06:41:14.863Z,67.60
2022-12-24T06:43:46.120Z,66.88
2022-12-24T06:46:13.225Z,66.68
2022-12-24T06:48:39.953Z,67.30
2022-12-24T06:51:06.632Z,67.40
2022-12-24T06:53:35.782Z,67.17
2022-12-24T06:56:11.561Z,66.96
2022-12-24T06:58:47.004Z,67.14
2022-12-24T07:01:16.899Z,66.96
2022-12-24T07:03:47.434Z,66.65
2022-12-24T07:06:24.951Z,66.55
2022-12-24T07:08:52.145Z,66.78
2022-12-24T07:11:27.290Z,67.09
2022-12-24T07:14:04.112Z,66.99
2022-12-24T07:16:35.907Z,66.42
2022-12-24T07:19:07.893Z,66.45
2022-12-24T07:21:34.481Z,66.89
2022-12-24T07:26:52.506Z,67.22
2022-12-24T07:29:19.174Z,67.20
2022-12-24T07:31:55.767Z,67.05
2022-12-24T07:34:22.388Z,67.23
2022-12-24T07:36:49.120Z,67.72
2022-12-24T07:39:15.693Z,67.36
2022-12-24T07:41:43.414Z,67.25
2022-12-24T07:44:13.990Z,67.76
2022-12-24T07:46:40.681Z,67.61
2022-12-24T07:49:09.780Z,67.54
2022-12-24T07:51:37.058Z,67.54
2022-12-24T07:54:04.963Z,66.91
2022-12-24T07:56:32.506Z,67.25
2022-12-24T07:58:59.615Z,67.47
2022-12-24T08:01:31.513Z,68.00
2022-12-24T08:03:58.367Z,67.75
2022-12-24T08:06:25.085Z,67.22
2022-12-24T08:08:51.629Z,66.14
2022-12-24T08:11:18.280Z,66.22
2022-12-24T08:13:44.810Z,66.37
2022-12-24T08:16:11.568Z,66.38
2022-12-24T08:18:38.191Z,66.37
2022-12-24T08:21:12.879Z,66.03
2022-12-24T08:26:20.025Z,66.61
2022-12-24T08:28:54.229Z,66.79
2022-12-24T08:31:20.850Z,66.43
2022-12-24T08:33:47.424Z,67.71
2022-12-24T08:36:24.135Z,66.76
2022-12-24T08:38:50.761Z,66.27
2022-12-24T08:41:17.382Z,65.93
2022-12-24T08:46:27.181Z,65.82
2022-12-24T08:48:53.904Z,65.76
2022-12-24T08:51:20.573Z,65.64
2022-12-24T08:53:49.788Z,65.69
2022-12-24T08:56:16.621Z,65.80
2022-12-24T08:58:50.054Z,66.99
2022-12-24T09:01:19.301Z,66.24
2022-12-24T09:03:46.451Z,66.47
2022-12-24T09:06:15.005Z,66.23
2022-12-24T09:08:41.924Z,65.47
2022-12-24T09:11:11.540Z,65.17
2022-12-24T09:13:38.289Z,66.07
2022-12-24T09:16:12.983Z,65.90
2022-12-24T09:18:40.500Z,65.16
2022-12-24T09:21:15.728Z,65.91
2022-12-24T09:23:44.561Z,65.18
2022-12-24T09:26:16.280Z,63.86
2022-12-24T09:28:42.882Z,64.35
2022-12-24T09:31:11.213Z,64.39
2022-12-24T09:33:39.533Z,63.99
2022-12-24T09:36:06.608Z,64.12
2022-12-24T09:38:33.971Z,63.64
2022-12-24T09:41:08.739Z,64.43
2022-12-24T09:43:37.735Z,63.40
2022-12-24T09:46:24.994Z,64.26
2022-12-24T09:48:56.968Z,63.29
2022-12-24T09:51:26.620Z,63.15
2022-12-24T09:54:03.391Z,63.39
2022-12-24T09:56:46.304Z,63.83
2022-12-24T09:59:21.159Z,62.93
2022-12-24T10:01:50.760Z,64.08
2022-12-24T10:04:20.469Z,64.04
2022-12-24T10:07:09.463Z,63.77
2022-12-24T10:10:06.697Z,62.83
2022-12-24T10:12:56.582Z,62.44
2022-12-24T10:15:34.133Z,65.28
2022-12-24T10:18:26.024Z,63.76
2022-12-24T10:21:12.784Z,62.63
2022-12-24T10:24:02.277Z,62.10
2022-12-24T10:26:46.151Z,62.08
2022-12-24T10:29:18.865Z,61.96
2022-12-24T10:31:59.429Z,61.65
2022-12-24T10:34:33.818Z,60.85
2022-12-24T10:37:03.037Z,60.94
2022-12-24T10:39:29.991Z,61.82
2022-12-24T10:41:59.225Z,62.07
2022-12-24T10:44:32.569Z,62.12
2022-12-24T10:46:59.838Z,60.99
2022-12-24T10:52:21.668Z,61.66
2022-12-24T10:55:11.264Z,60.70
2022-12-24T10:57:39.337Z,59.80
2022-12-24T11:00:18.750Z,59.91
2022-12-24T11:02:51.784Z,60.85
2022-12-24T11:05:59.415Z,60.14
2022-12-24T11:08:26.432Z,60.42
2022-12-24T11:11:11.063Z,60.22
2022-12-24T11:13:44.934Z,59.74
2022-12-24T11:16:26.812Z,59.57
2022-12-24T11:18:57.925Z,59.85
2022-12-24T11:21:44.116Z,59.89
2022-12-24T11:24:13.175Z,58.86
2022-12-24T11:26:43.065Z,59.49
2022-12-24T11:29:16.997Z,59.69
2022-12-24T11:31:45.564Z,58.88
2022-12-24T11:34:38.021Z,59.00
2022-12-24T11:37:15.210Z,59.13
2022-12-24T11:39:47.620Z,58.61
2022-12-24T11:42:38.175Z,59.21
2022-12-24T11:45:29.823Z,58.87
2022-12-24T11:47:57.787Z,58.13
2022-12-24T11:50:26.235Z,57.33
2022-12-24T11:53:04.157Z,59.17
2022-12-24T11:55:49.420Z,58.09
2022-12-24T11:58:44.963Z,57.39
2022-12-24T12:04:13.280Z,58.46
2022-12-24T12:06:50.982Z,60.08
2022-12-24T12:09:24.851Z,60.86
2022-12-24T12:12:10.076Z,59.69
2022-12-24T12:14:48.299Z,59.14
2022-12-24T12:17:36.197Z,57.74
2022-12-24T12:20:14.935Z,57.47
2022-12-24T12:23:02.644Z,57.35
2022-12-24T12:25:48.428Z,56.93
2022-12-24T12:28:45.539Z,56.93
2022-12-24T12:31:42.972Z,57.42
2022-12-24T12:34:16.566Z,57.31
2022-12-24T12:36:57.602Z,57.63
2022-12-24T12:39:24.517Z,56.90
2022-12-24T12:41:53.695Z,56.80
2022-12-24T12:44:32.679Z,56.44
2022-12-24T12:47:25.135Z,56.71
2022-12-24T12:50:18.516Z,56.58
2022-12-24T12:53:03.781Z,56.75
2022-12-24T12:56:02.049Z,56.76
2022-12-24T12:59:02.966Z,57.09
2022-12-24T13:01:36.829Z,57.04
2022-12-24T13:04:30.980Z,56.80
2022-12-24T13:07:06.378Z,57.19
2022-12-24T13:10:10.260Z,57.54
2022-12-24T13:13:25.797Z,58.00
2022-12-24T13:16:07.469Z,58.98
2022-12-24T13:18:52.397Z,59.11
2022-12-24T13:21:23.528Z,58.13
2022-12-24T13:23:59.463Z,58.31
2022-12-24T13:26:26.082Z,59.22
2022-12-24T13:28:52.732Z,58.26
2022-12-24T13:31:24.645Z,58.70
2022-12-24T13:34:02.493Z,59.21
2022-12-24T13:37:09.369Z,59.32
2022-12-24T13:40:08.119Z,59.76
2022-12-24T13:42:49.945Z,61.53
2022-12-24T13:45:28.851Z,61.21
2022-12-24T13:48:09.621Z,62.05
2022-12-24T13:50:52.464Z,61.42
2022-12-24T13:53:37.022Z,61.37
2022-12-24T13:56:12.622Z,61.71
2022-12-24T13:58:49.475Z,61.71
2022-12-24T14:01:23.320Z,61.33
2022-12-24T14:03:55.757Z,61.82
2022-12-24T14:06:35.898Z,63.59
2022-12-24T14:09:16.698Z,63.27
2022-12-24T14:12:01.956Z,62.96
2022-12-24T14:14:35.856Z,63.38
2022-12-24T14:17:27.767Z,63.40
2022-12-24T14:19:56.773Z,62.16
2022-12-24T14:22:23.324Z,62.44
2022-12-24T14:25:04.566Z,62.94
2022-12-24T14:27:48.017Z,63.53
2022-12-24T14:30:23.499Z,64.35
2022-12-24T14:32:51.685Z,65.97
2022-12-24T14:35:24.292Z,66.73
2022-12-24T14:38:18.787Z,66.38
2022-12-24T14:41:24.753Z,66.50
2022-12-24T14:44:18.669Z,66.87
2022-12-24T14:46:54.087Z,66.45
2022-12-24T14:49:35.839Z,68.07
2022-12-24T14:53:03.513Z,68.88
2022-12-24T14:55:31.099Z,68.68
2022-12-24T14:58:36.599Z,70.01
2022-12-24T15:01:18.155Z,71.49
2022-12-24T15:03:59.853Z,71.41
2022-12-24T15:06:27.405Z,70.95
2022-12-24T15:08:54.279Z,70.57
2022-12-24T15:11:23.299Z,72.75
2022-12-24T15:13:56.886Z,71.29
2022-12-24T15:16:35.495Z,71.99
2022-12-24T15:19:05.926Z,72.17
2022-12-24T15:21:41.448Z,72.28
2022-12-24T15:24:27.771Z,71.80
2022-12-24T15:26:55.065Z,71.36
2022-12-24T15:29:30.543Z,72.57
2022-12-24T15:31:59.554Z,71.67
2022-12-24T15:34:34.986Z,72.21
2022-12-24T15:37:35.235Z,75.02
2022-12-24T15:40:19.463Z,74.57
2022-12-24T15:42:46.261Z,73.82
2022-12-24T15:45:27.641Z,73.15
2022-12-24T15:48:00.537Z,73.15
2022-12-24T15:50:35.472Z,73.68
2022-12-24T15:53:18.735Z,72.99
2022-12-24T15:56:02.706Z,72.71
2022-12-24T15:58:46.061Z,72.26
2022-12-24T16:01:20.513Z,72.56
2022-12-24T16:03:50.062Z,72.84
2022-12-24T16:06:17.225Z,72.37
2022-12-24T16:08:45.003Z,72.24
2022-12-24T16:11:11.575Z,73.58
2022-12-24T16:13:54.415Z,73.07
2022-12-24T16:16:30.451Z,71.96
2022-12-24T16:18:58.961Z,71.64
2022-12-24T16:21:34.213Z,70.83
2022-12-24T16:24:24.101Z,70.31
2022-12-24T16:26:51.123Z,70.50
2022-12-24T16:29:22.460Z,69.82
2022-12-24T16:31:54.805Z,69.93
2022-12-24T16:34:25.645Z,71.64
2022-12-24T16:36:53.045Z,72.47
2022-12-24T16:39:25.888Z,71.55
2022-12-24T16:42:16.288Z,71.68
2022-12-24T16:44:43.827Z,71.77
2022-12-24T16:47:18.040Z,73.06
2022-12-24T16:49:44.764Z,75.14
2022-12-24T16:52:22.300Z,72.59
2022-12-24T16:54:49.654Z,71.21
2022-12-24T16:57:19.340Z,71.61
2022-12-24T16:59:46.434Z,72.71
2022-12-24T17:02:15.759Z,71.98
2022-12-24T17:04:43.492Z,71.07
2022-12-24T17:07:15.137Z,72.35
2022-12-24T17:09:42.667Z,72.96
2022-12-24T17:12:13.726Z,73.30
2022-12-24T17:14:40.544Z,74.37
2022-12-24T17:17:07.195Z,75.29
2022-12-24T17:19:33.783Z,74.67
2022-12-24T17:22:00.329Z,74.62
2022-12-24T17:24:26.889Z,76.19
2022-12-24T17:26:53.500Z,75.80
2022-12-24T17:29:20.176Z,74.99
2022-12-24T17:31:46.785Z,76.15
2022-12-24T17:34:13.436Z,76.10
2022-12-24T17:36:40.289Z,76.15
2022-12-24T17:39:06.968Z,76.40
2022-12-24T17:41:33.572Z,75.38
2022-12-24T17:44:00.226Z,74.90
2022-12-24T17:46:26.845Z,73.96
2022-12-24T17:48:53.602Z,73.85
2022-12-24T17:51:22.957Z,75.89
2022-12-24T17:53:50.278Z,74.73
2022-12-24T17:56:20.115Z,74.21
2022-12-24T17:58:47.192Z,74.39
2022-12-24T18:01:19.716Z,73.83
2022-12-24T18:03:48.348Z,74.07
2022-12-24T18:06:16.039Z,73.04
2022-12-24T18:08:45.634Z,74.34
2022-12-24T18:11:16.751Z,73.29
2022-12-24T18:13:48.989Z,74.36
2022-12-24T18:16:23.195Z,74.37
2022-12-24T18:18:50.786Z,74.85
2022-12-24T18:21:20.314Z,74.11
2022-12-24T18:23:49.457Z,74.23
2022-12-24T18:26:19.234Z,73.51
2022-12-24T18:28:47.334Z,72.37
2022-12-24T18:31:19.710Z,72.34
2022-12-24T18:33:48.061Z,72.36
2022-12-24T18:36:15.262Z,73.92
2022-12-24T18:38:44.251Z,74.52
2022-12-24T18:41:16.607Z,74.33
2022-12-24T18:43:43.442Z,74.36
2022-12-24T18:46:12.817Z,73.83
2022-12-24T18:48:39.933Z,75.26
2022-12-24T18:51:07.855Z,76.25
2022-12-24T18:53:35.652Z,77.00
2022-12-24T18:56:11.910Z,77.08
2022-12-24T18:58:38.962Z,76.43
2022-12-24T19:01:22.032Z,75.85
2022-12-24T19:03:49.557Z,75.36
2022-12-24T19:06:17.464Z,74.47
2022-12-24T19:09:01.579Z,75.85
2022-12-24T19:11:34.257Z,75.78
2022-12-24T19:14:02.307Z,74.03
2022-12-24T19:16:31.664Z,74.33
2022-12-24T19:18:58.613Z,74.61
2022-12-24T19:21:25.417Z,73.35
2022-12-24T19:23:52.248Z,72.81
2022-12-24T19:26:20.093Z,71.95
2022-12-24T19:28:47.479Z,71.24
2022-12-24T19:31:32.608Z,71.80
2022-12-24T19:33:59.312Z,71.85
2022-12-24T19:36:29.397Z,71.28
2022-12-24T19:38:57.319Z,70.58
2022-12-24T19:41:27.337Z,70.81
2022-12-24T19:43:56.209Z,70.93
2022-12-24T19:46:28.126Z,71.19
2022-12-24T19:48:57.958Z,70.37
2022-12-24T19:51:26.006Z,70.48
2022-12-24T19:53:54.921Z,71.02
2022-12-24T19:56:25.729Z,70.66
2022-12-24T19:58:53.081Z,69.47
2022-12-24T20:01:22.715Z,68.55
2022-12-24T20:03:51.816Z,67.97
2022-12-24T20:06:20.616Z,68.13
2022-12-24T20:08:48.481Z,68.89
2022-12-24T20:11:20.149Z,69.55
2022-12-24T20:13:53.236Z,69.58
2022-12-24T20:16:24.934Z,69.03
2022-12-24T20:19:08.508Z,68.96
2022-12-24T20:21:35.316Z,69.61
2022-12-24T20:24:02.397Z,70.02
2022-12-24T20:26:29.560Z,68.90
2022-12-24T20:28:56.561Z,69.62
2022-12-24T20:31:26.212Z,69.73
2022-12-24T20:33:53.280Z,69.23
2022-12-24T20:36:22.298Z,67.69
2022-12-24T20:38:49.617Z,68.23
2022-12-24T20:41:21.782Z,68.72
2022-12-24T20:43:49.153Z,69.25
2022-12-24T20:46:18.017Z,69.58
2022-12-24T20:48:44.736Z,69.54
2022-12-24T20:51:22.699Z,68.97
2022-12-24T20:53:52.486Z,69.46
2022-12-24T20:56:19.097Z,69.19
2022-12-24T20:58:46.635Z,70.77
2022-12-24T21:01:25.965Z,72.01
2022-12-24T21:03:54.533Z,71.78
2022-12-24T21:06:22.123Z,71.13
2022-12-24T21:08:50.095Z,71.19
2022-12-24T21:11:35.573Z,71.77
2022-12-24T21:14:02.386Z,72.63
2022-12-24T21:16:33.333Z,72.56
2022-12-24T21:19:00.301Z,71.69
2022-12-24T21:21:26.975Z,71.31
2022-12-24T21:23:53.635Z,70.97
2022-12-24T21:26:20.359Z,70.43
2022-12-24T21:28:46.991Z,69.46
2022-12-24T21:31:14.895Z,69.14
2022-12-24T21:33:42.058Z,69.75
2022-12-24T21:36:11.096Z,67.71
2022-12-24T21:38:37.746Z,66.35
2022-12-24T21:41:12.484Z,65.88
2022-12-24T21:43:39.521Z,66.45
2022-12-24T21:46:12.448Z,65.43
2022-12-24T21:48:58.707Z,65.24
2022-12-24T21:51:26.763Z,65.49
2022-12-24T21:54:11.914Z,66.66
2022-12-24T21:56:57.285Z,66.27
2022-12-24T21:59:26.796Z,66.34
2022-12-24T22:01:54.498Z,65.31
2022-12-24T22:04:21.326Z,65.48
2022-12-24T22:07:06.403Z,64.54
2022-12-24T22:09:51.472Z,65.00
2022-12-24T22:12:18.197Z,64.85
2022-12-24T22:14:44.793Z,64.21
2022-12-24T22:17:11.460Z,66.49
2022-12-24T22:19:38.052Z,65.78
2022-12-24T22:22:04.687Z,65.58
2022-12-24T22:24:31.317Z,64.87
2022-12-24T22:26:57.932Z,64.79
2022-12-24T22:29:24.954Z,64.66
2022-12-24T22:31:51.609Z,65.69
2022-12-24T22:34:18.214Z,65.16
2022-12-24T22:36:44.851Z,65.91
2022-12-24T22:39:11.555Z,65.16
2022-12-24T22:41:38.183Z,65.70
2022-12-24T22:44:04.836Z,65.36
2022-12-24T22:46:35.038Z,65.22
2022-12-24T22:49:02.636Z,65.22
2022-12-24T22:51:29.257Z,64.86
2022-12-24T22:53:56.934Z,65.70
2022-12-24T22:56:23.752Z,65.37
2022-12-24T22:58:55.328Z,63.95
2022-12-24T23:01:43.297Z,64.02
2022-12-24T23:04:10.674Z,64.94
2022-12-24T23:06:38.310Z,65.44
2022-12-24T23:09:07.593Z,64.61
2022-12-24T23:11:34.568Z,65.24
2022-12-24T23:14:19.617Z,65.83
2022-12-24T23:16:46.360Z,68.66
2022-12-24T23:19:12.971Z,68.32
2022-12-24T23:21:40.026Z,67.25
2022-12-24T23:24:07.093Z,66.06
2022-12-24T23:26:33.689Z,66.58
2022-12-24T23:29:00.293Z,66.88
2022-12-24T23:31:27.478Z,67.83
2022-12-24T23:33:54.187Z,68.15
2022-12-24T23:36:21.216Z,68.75
2022-12-24T23:38:48.276Z,68.87
2022-12-24T23:41:18.649Z,68.32
2022-12-24T23:43:46.347Z,68.07
2022-12-24T23:46:15.426Z,67.26
2022-12-24T23:48:42.627Z,68.45
2022-12-24T23:51:12.201Z,66.67
2022-12-24T23:53:39.062Z,66.39
2022-12-24T23:56:06.904Z,67.81
2022-12-24T23:58:33.778Z,69.32
